nws-alerts: Checking more than four warning/county codes can delay the loading of your pages. You should use a cron job to get the data.
EllijayWeather Station Historical Data
Daily Summary for November 4, 2018 Units:  English    Metric   Both
Daily Weekly Monthly Yearly Custom
  High: Low: Average:
Temperature: 60.3 °F 36.3 °F 49.9 °F
Dew Point: 49.1 °F 23.9 °F 37.9 °F
Humidity: 78% 53% 63%
Wind Speed: 12.1mph 0.0mph 0.6mph
Wind Gust: 12.0mph - -
Wind- - SE
Pressure: 30.37 in 30.20 in -
Precipitation: 0.37 in    
Historical Graphs
 
 
Tabular Data for November 4, 2018
Time Temperature Dew Point Pressure Wind Wind Speed Wind Gust Humidity Rainfall Rate (Hourly) solar
00:04 41.4 °F 28.9 °F 30.35 in Calm     61% 0.00 in meteobridge W/m2
00:06 41.2 °F 28.8 °F 30.35 in Calm     61% 0.00 in meteobridge W/m2
00:14 41.0 °F 28.6 °F 30.35 in Calm     61% 0.00 in meteobridge W/m2
00:19 40.8 °F 28.4 °F 30.35 in Calm     61% 0.00 in meteobridge W/m2
00:24 40.8 °F 28.4 °F 30.36 in Calm     61% 0.00 in meteobridge W/m2
00:29 40.6 °F 28.2 °F 30.35 in Calm     61% 0.00 in meteobridge W/m2
00:34 40.6 °F 28.2 °F 30.35 in Calm     61% 0.00 in meteobridge W/m2
00:39 40.5 °F 28.0 °F 30.36 in Calm     61% 0.00 in meteobridge W/m2
00:43 40.5 °F 28.0 °F 30.35 in Calm     61% 0.00 in meteobridge W/m2
00:45 40.5 °F 28.0 °F 30.36 in Calm     61% 0.00 in meteobridge W/m2
00:54 40.5 °F 28.0 °F 30.35 in Calm     61% 0.00 in meteobridge W/m2
00:59 40.3 °F 27.9 °F 30.35 in Calm     61% 0.00 in meteobridge W/m2
01:04 40.3 °F 27.9 °F 30.35 in Calm     61% 0.00 in meteobridge W/m2
01:08 40.3 °F 27.9 °F 30.35 in Calm     61% 0.00 in meteobridge W/m2
01:14 40.3 °F 27.9 °F 30.35 in Calm     61% 0.00 in meteobridge W/m2
01:19 40.3 °F 27.9 °F 30.35 in Calm     61% 0.00 in meteobridge W/m2
01:24 40.1 °F 27.7 °F 30.35 in Calm     61% 0.00 in meteobridge W/m2
01:29 40.1 °F 27.7 °F 30.35 in Calm     61% 0.00 in meteobridge W/m2
01:33 39.9 °F 27.1 °F 30.36 in Calm     60% 0.00 in meteobridge W/m2
01:38 39.9 °F 27.1 °F 30.36 in Calm     60% 0.00 in meteobridge W/m2
01:44 39.9 °F 27.1 °F 30.36 in Calm     60% 0.00 in meteobridge W/m2
01:47 39.9 °F 27.1 °F 30.36 in Calm     60% 0.00 in meteobridge W/m2
01:54 39.7 °F 27.0 °F 30.36 in Calm     60% 0.00 in meteobridge W/m2
01:57 39.7 °F 27.0 °F 30.36 in Calm     60% 0.00 in meteobridge W/m2
01:04 39.7 °F 27.0 °F 30.36 in Calm     60% 0.00 in meteobridge W/m2
01:09 39.7 °F 27.0 °F 30.36 in Calm     60% 0.00 in meteobridge W/m2
01:14 39.7 °F 27.0 °F 30.36 in Calm     60% 0.00 in meteobridge W/m2
01:19 39.7 °F 27.0 °F 30.36 in Calm     60% 0.00 in meteobridge W/m2
01:24 39.9 °F 27.1 °F 30.36 in Calm     60% 0.00 in meteobridge W/m2
01:29 39.9 °F 26.8 °F 30.36 in Calm     59% 0.00 in meteobridge W/m2
01:34 39.9 °F 26.8 °F 30.37 in Calm     59% 0.00 in meteobridge W/m2
01:38 39.9 °F 26.8 °F 30.37 in Calm     59% 0.00 in meteobridge W/m2
01:43 39.9 °F 26.8 °F 30.37 in Calm     59% 0.00 in meteobridge W/m2
01:49 40.3 °F 27.1 °F 30.37 in Calm     59% 0.00 in meteobridge W/m2
01:54 40.3 °F 27.1 °F 30.37 in Calm     59% 0.00 in meteobridge W/m2
01:57 40.5 °F 27.3 °F 30.37 in Calm     59% 0.00 in meteobridge W/m2
02:04 40.6 °F 27.5 °F 30.37 in Calm     59% 0.00 in meteobridge W/m2
02:07 40.6 °F 27.5 °F 30.37 in Calm     59% 0.00 in meteobridge W/m2
02:14 40.6 °F 27.5 °F 30.37 in Calm     59% 0.00 in meteobridge W/m2
02:18 40.6 °F 27.5 °F 30.37 in Calm     59% 0.00 in meteobridge W/m2
02:24 40.6 °F 27.5 °F 30.37 in Calm     59% 0.00 in meteobridge W/m2
02:29 40.6 °F 27.5 °F 30.37 in Calm     59% 0.00 in meteobridge W/m2
02:34 40.6 °F 27.5 °F 30.37 in Calm     59% 0.00 in meteobridge W/m2
02:39 40.5 °F 27.3 °F 30.37 in Calm     59% 0.00 in meteobridge W/m2
02:44 40.5 °F 27.3 °F 30.37 in Calm     59% 0.00 in meteobridge W/m2
02:48 40.5 °F 27.3 °F 30.37 in Calm     59% 0.00 in meteobridge W/m2
02:54 40.3 °F 27.1 °F 30.37 in Calm     59% 0.00 in meteobridge W/m2
02:59 39.9 °F 26.8 °F 30.36 in Calm     59% 0.00 in meteobridge W/m2
03:04 39.9 °F 26.8 °F 30.36 in Calm     59% 0.00 in meteobridge W/m2
03:09 39.7 °F 27.0 °F 30.36 in Calm     60% 0.00 in meteobridge W/m2
03:14 39.7 °F 27.0 °F 30.36 in Calm     60% 0.00 in meteobridge W/m2
03:19 39.6 °F 26.8 °F 30.36 in Calm     60% 0.00 in meteobridge W/m2
03:24 39.6 °F 26.8 °F 30.36 in Calm     60% 0.00 in meteobridge W/m2
03:29 39.6 °F 26.8 °F 30.36 in Calm     60% 0.00 in meteobridge W/m2
03:33 39.4 °F 26.6 °F 30.36 in Calm     60% 0.00 in meteobridge W/m2
03:39 39.2 °F 26.4 °F 30.36 in Calm     60% 0.00 in meteobridge W/m2
03:43 39.2 °F 26.4 °F 30.36 in Calm   1.0 mph 60% 0.00 in meteobridge W/m2
03:49 39.2 °F 26.4 °F 30.37 in Calm     60% 0.00 in meteobridge W/m2
03:53 39.0 °F 26.2 °F 30.36 in Calm     60% 0.00 in meteobridge W/m2
03:58 39.2 °F 26.4 °F 30.37 in Calm     60% 0.00 in meteobridge W/m2
04:03 39.0 °F 26.2 °F 30.37 in Calm     60% 0.00 in meteobridge W/m2
04:09 39.0 °F 26.2 °F 30.37 in Calm     60% 0.00 in meteobridge W/m2
04:14 39.0 °F 26.2 °F 30.37 in Calm     60% 0.00 in meteobridge W/m2
04:19 39.0 °F 26.2 °F 30.37 in Calm     60% 0.00 in meteobridge W/m2
04:24 38.8 °F 26.1 °F 30.36 in Calm     60% 0.00 in meteobridge W/m2
04:29 38.8 °F 26.1 °F 30.36 in Calm     60% 0.00 in meteobridge W/m2
04:34 38.7 °F 26.1 °F 30.36 in Calm     60% 0.00 in meteobridge W/m2
04:39 38.7 °F 26.1 °F 30.36 in Calm     60% 0.00 in meteobridge W/m2
04:44 38.5 °F 25.9 °F 30.36 in Calm     60% 0.00 in meteobridge W/m2
04:49 38.3 °F 25.7 °F 30.36 in Calm     60% 0.00 in meteobridge W/m2
04:54 38.1 °F 25.9 °F 30.36 in Calm     61% 0.00 in meteobridge W/m2
04:59 37.9 °F 25.7 °F 30.36 in Calm     61% 0.00 in meteobridge W/m2
05:04 37.8 °F 25.5 °F 30.36 in Calm     61% 0.00 in meteobridge W/m2
05:09 37.8 °F 25.5 °F 30.36 in Calm     61% 0.00 in meteobridge W/m2
05:14 37.6 °F 25.3 °F 30.36 in Calm     61% 0.00 in meteobridge W/m2
05:19 37.4 °F 25.2 °F 30.36 in Calm     61% 0.00 in meteobridge W/m2
05:24 37.2 °F 25.0 °F 30.36 in Calm     61% 0.00 in meteobridge W/m2
05:29 37.2 °F 25.0 °F 30.36 in Calm     61% 0.00 in meteobridge W/m2
05:34 37.0 °F 24.8 °F 30.37 in Calm     61% 0.00 in meteobridge W/m2
05:39 37.0 °F 24.8 °F 30.37 in Calm     61% 0.00 in meteobridge W/m2
05:44 36.9 °F 24.6 °F 30.37 in Calm     61% 0.00 in meteobridge W/m2
05:49 36.9 °F 24.6 °F 30.37 in Calm     61% 0.00 in meteobridge W/m2
05:53 36.7 °F 24.4 °F 30.37 in Calm     61% 0.00 in meteobridge W/m2
05:59 36.5 °F 24.3 °F 30.37 in Calm     61% 0.00 in meteobridge W/m2
06:04 36.3 °F 24.1 °F 30.36 in Calm     61% 0.00 in meteobridge W/m2
06:09 36.3 °F 24.1 °F 30.36 in Calm     61% 0.00 in meteobridge W/m2
06:13 36.3 °F 24.1 °F 30.36 in Calm     61% 0.00 in meteobridge W/m2
06:19 36.3 °F 24.1 °F 30.36 in Calm     61% 0.00 in meteobridge W/m2
06:22 36.3 °F 24.1 °F 30.36 in Calm     61% 0.00 in meteobridge W/m2
06:29 36.3 °F 24.1 °F 30.36 in Calm     61% 0.00 in meteobridge W/m2
06:34 36.3 °F 24.1 °F 30.36 in Calm     61% 0.00 in meteobridge W/m2
06:39 36.3 °F 24.1 °F 30.36 in Calm     61% 0.00 in meteobridge W/m2
06:43 36.3 °F 24.1 °F 30.36 in Calm     61% 0.00 in meteobridge W/m2
06:49 36.5 °F 23.9 °F 30.36 in Calm     60% 0.00 in meteobridge W/m2
06:54 36.7 °F 24.1 °F 30.36 in Calm     60% 0.00 in meteobridge W/m2
06:59 37.0 °F 24.4 °F 30.36 in Calm     60% 0.00 in meteobridge W/m2
07:04 37.2 °F 24.6 °F 30.36 in Calm     60% 0.00 in meteobridge W/m2
07:09 37.2 °F 24.6 °F 30.35 in Calm     60% 0.00 in meteobridge W/m2
07:14 37.6 °F 25.0 °F 30.35 in Calm     60% 0.00 in meteobridge W/m2
07:19 37.8 °F 24.8 °F 30.35 in Calm     59% 0.00 in meteobridge W/m2
07:22 37.9 °F 25.0 °F 30.35 in Calm     59% 0.00 in meteobridge W/m2
07:27 38.5 °F 25.3 °F 30.35 in Calm     59% 0.00 in meteobridge W/m2
07:33 39.0 °F 25.5 °F 30.35 in Calm     58% 0.00 in meteobridge W/m2
07:38 39.6 °F 26.1 °F 30.35 in Calm     58% 0.00 in meteobridge W/m2
07:44 40.3 °F 26.6 °F 30.35 in Calm     58% 0.00 in meteobridge W/m2
07:49 41.2 °F 27.1 °F 30.35 in Calm   4.0 mph 57% 0.00 in meteobridge W/m2
07:53 42.3 °F 28.0 °F 30.35 in Calm     57% 0.00 in meteobridge W/m2
07:59 43.3 °F 28.8 °F 30.36 in SE 0.9 mph 5.0 mph 56% 0.00 in meteobridge W/m2
08:04 44.2 °F 30.0 °F 30.36 in Calm   4.0 mph 57% 0.00 in meteobridge W/m2
08:09 45.1 °F 34.2 °F 30.37 in Calm   1.0 mph 65% 0.00 in meteobridge W/m2
08:13 45.7 °F 36.9 °F 30.37 in SSE 0.9 mph 2.0 mph 71% 0.00 in meteobridge W/m2
08:19 46.9 °F 40.5 °F 30.37 in SE 2.0 mph 7.0 mph 78% 0.00 in meteobridge W/m2
08:24 48.0 °F 41.5 °F 30.37 in Calm   1.0 mph 78% 0.00 in meteobridge W/m2
08:29 48.6 °F 41.7 °F 30.37 in SSE 2.0 mph 2.0 mph 77% 0.00 in meteobridge W/m2
08:34 49.1 °F 41.5 °F 30.37 in Calm   5.0 mph 75% 0.00 in meteobridge W/m2
08:39 49.6 °F 41.4 °F 30.37 in Calm   1.0 mph 73% 0.00 in meteobridge W/m2
08:43 49.8 °F 41.2 °F 30.37 in SE 4.9 mph 5.0 mph 72% 0.00 in meteobridge W/m2
08:49 50.4 °F 41.0 °F 30.37 in Calm   4.0 mph 70% 0.00 in meteobridge W/m2
08:54 50.5 °F 40.8 °F 30.37 in Calm   2.0 mph 69% 0.00 in meteobridge W/m2
08:59 50.9 °F 40.6 °F 30.37 in SE 4.0 mph 5.0 mph 68% 0.00 in meteobridge W/m2
09:04 51.3 °F 41.4 °F 30.37 in Calm   4.0 mph 69% 0.00 in meteobridge W/m2
09:09 51.3 °F 40.6 °F 30.37 in East 0.9 mph 4.0 mph 67% 0.00 in meteobridge W/m2
09:14 51.4 °F 41.2 °F 30.37 in Calm   5.0 mph 68% 0.00 in meteobridge W/m2
09:19 51.4 °F 40.8 °F 30.37 in SE 2.0 mph 5.0 mph 67% 0.00 in meteobridge W/m2
09:24 51.4 °F 41.2 °F 30.37 in ESE 0.9 mph 7.0 mph 68% 0.00 in meteobridge W/m2
09:29 51.6 °F 41.0 °F 30.37 in ENE 2.0 mph 7.0 mph 67% 0.00 in meteobridge W/m2
09:34 51.8 °F 40.8 °F 30.37 in SE 2.0 mph 6.0 mph 66% 0.00 in meteobridge W/m2
09:38 52.0 °F 41.0 °F 30.37 in Calm   12.0 mph 66% 0.00 in meteobridge W/m2
09:44 52.3 °F 41.4 °F 30.36 in SE 0.9 mph 6.0 mph 66% 0.00 in meteobridge W/m2
09:49 52.5 °F 41.5 °F 30.36 in Calm   7.0 mph 66% 0.00 in meteobridge W/m2
09:54 52.5 °F 41.5 °F 30.35 in Calm   1.0 mph 66% 0.00 in meteobridge W/m2
09:59 52.7 °F 41.7 °F 30.36 in SW 2.9 mph 9.0 mph 66% 0.00 in meteobridge W/m2
10:04 52.9 °F 41.9 °F 30.36 in SSE 2.0 mph 6.0 mph 66% 0.00 in meteobridge W/m2
10:09 53.1 °F 41.5 °F 30.36 in ESE 0.9 mph 4.0 mph 65% 0.00 in meteobridge W/m2
10:14 53.4 °F 42.3 °F 30.37 in SE 4.9 mph 5.0 mph 66% 0.00 in meteobridge W/m2
10:19 53.4 °F 41.9 °F 30.36 in SE 0.9 mph 7.0 mph 65% 0.00 in meteobridge W/m2
10:24 53.6 °F 41.7 °F 30.37 in Calm   7.0 mph 64% 0.00 in meteobridge W/m2
10:29 53.8 °F 41.9 °F 30.36 in SE 4.0 mph 5.0 mph 64% 0.00 in meteobridge W/m2
10:34 54.1 °F 42.3 °F 30.36 in SE 12.1 mph 12.0 mph 64% 0.00 in meteobridge W/m2
10:39 54.1 °F 41.9 °F 30.36 in SE 8.9 mph 10.0 mph 63% 0.00 in meteobridge W/m2
10:44 54.3 °F 42.1 °F 30.36 in Calm   4.0 mph 63% 0.00 in meteobridge W/m2
10:49 54.7 °F 42.8 °F 30.36 in SE 4.0 mph 6.0 mph 64% 0.00 in meteobridge W/m2
10:54 54.9 °F 42.1 °F 30.36 in Calm   4.0 mph 62% 0.00 in meteobridge W/m2
10:59 55.0 °F 42.6 °F 30.36 in SSE 0.9 mph 6.0 mph 63% 0.00 in meteobridge W/m2
11:03 55.0 °F 41.9 °F 30.35 in East 0.9 mph 4.0 mph 61% 0.00 in meteobridge W/m2
11:09 55.6 °F 42.3 °F 30.35 in Calm   6.0 mph 61% 0.00 in meteobridge W/m2
11:14 55.8 °F 42.4 °F 30.35 in Calm   5.0 mph 61% 0.00 in meteobridge W/m2
11:19 56.1 °F 42.8 °F 30.34 in SSE 0.9 mph 6.0 mph 61% 0.00 in meteobridge W/m2
11:24 56.1 °F 41.5 °F 30.35 in ESE 4.0 mph 9.0 mph 58% 0.00 in meteobridge W/m2
11:29 56.1 °F 40.6 °F 30.34 in ESE 0.9 mph 7.0 mph 56% 0.00 in meteobridge W/m2
11:34 56.3 °F 41.7 °F 30.34 in ESE 0.9 mph 6.0 mph 58% 0.00 in meteobridge W/m2
11:39 56.5 °F 41.4 °F 30.33 in SSE 4.9 mph 5.0 mph 57% 0.00 in meteobridge W/m2
11:44 56.8 °F 40.5 °F 30.33 in SE 4.0 mph 7.0 mph 54% 0.00 in meteobridge W/m2
11:49 56.8 °F 40.5 °F 30.33 in ESE 0.9 mph 9.0 mph 54% 0.00 in meteobridge W/m2
11:54 56.8 °F 40.5 °F 30.32 in SE 4.0 mph 7.0 mph 54% 0.00 in meteobridge W/m2
11:58 57.0 °F 41.0 °F 30.32 in ESE 6.0 mph 6.0 mph 55% 0.00 in meteobridge W/m2
12:04 57.0 °F 41.0 °F 30.33 in Calm   7.0 mph 55% 0.00 in meteobridge W/m2
12:09 57.4 °F 41.4 °F 30.32 in Calm   8.0 mph 55% 0.00 in meteobridge W/m2
12:14 57.6 °F 41.5 °F 30.32 in SE 0.9 mph 5.0 mph 55% 0.00 in meteobridge W/m2
12:19 57.7 °F 41.2 °F 30.32 in ESE 4.0 mph 5.0 mph 54% 0.00 in meteobridge W/m2
12:24 57.9 °F 41.4 °F 30.32 in Calm   6.0 mph 54% 0.00 in meteobridge W/m2
12:27 58.3 °F 41.7 °F 30.32 in East 4.0 mph 10.0 mph 54% 0.00 in meteobridge W/m2
12:34 58.3 °F 41.7 °F 30.32 in Calm   2.0 mph 54% 0.00 in meteobridge W/m2
12:39 58.8 °F 42.6 °F 30.31 in SSE 0.9 mph 4.0 mph 55% 0.00 in meteobridge W/m2
12:44 59.0 °F 41.9 °F 30.30 in Calm   5.0 mph 53% 0.00 in meteobridge W/m2
12:49 58.8 °F 41.7 °F 30.30 in SE 4.0 mph 8.0 mph 53% 0.00 in meteobridge W/m2
12:53 58.8 °F 42.6 °F 30.30 in SE 4.0 mph 5.0 mph 55% 0.00 in meteobridge W/m2
12:59 59.0 °F 42.8 °F 30.29 in ESE 6.0 mph 8.0 mph 55% 0.00 in meteobridge W/m2
13:04 59.2 °F 43.5 °F 30.29 in Calm   2.0 mph 56% 0.00 in meteobridge W/m2
13:09 59.4 °F 43.7 °F 30.29 in Calm   7.0 mph 56% 0.00 in meteobridge W/m2
13:14 59.5 °F 44.2 °F 30.29 in East 2.0 mph 6.0 mph 57% 0.00 in meteobridge W/m2
13:19 59.5 °F 44.2 °F 30.28 in Calm   4.0 mph 57% 0.00 in meteobridge W/m2
13:24 59.7 °F 44.1 °F 30.28 in SE 2.0 mph 4.0 mph 56% 0.00 in meteobridge W/m2
13:29 59.9 °F 44.6 °F 30.27 in ESE 0.9 mph 4.0 mph 57% 0.00 in meteobridge W/m2
13:34 59.5 °F 44.8 °F 30.27 in East 0.9 mph 2.0 mph 58% 0.00 in meteobridge W/m2
13:39 59.4 °F 45.5 °F 30.27 in East 2.0 mph 5.0 mph 60% 0.00 in meteobridge W/m2
13:44 59.5 °F 45.1 °F 30.26 in SE 4.9 mph 8.0 mph 59% 0.00 in meteobridge W/m2
13:49 59.5 °F 45.7 °F 30.25 in SE 0.9 mph 4.0 mph 60% 0.00 in meteobridge W/m2
13:53 59.5 °F 45.7 °F 30.25 in SE 0.9 mph 6.0 mph 60% 0.00 in meteobridge W/m2
13:59 59.5 °F 46.0 °F 30.25 in Calm   8.0 mph 61% 0.00 in meteobridge W/m2
14:04 59.9 °F 46.0 °F 30.25 in ESE 4.9 mph 9.0 mph 60% 0.00 in meteobridge W/m2
14:09 59.7 °F 46.2 °F 30.26 in SE 2.0 mph 2.0 mph 61% 0.00 in meteobridge W/m2
14:14 59.5 °F 45.7 °F 30.26 in SE 0.9 mph 5.0 mph 60% 0.00 in meteobridge W/m2
14:18 59.4 °F 45.9 °F 30.25 in Calm   9.0 mph 61% 0.00 in meteobridge W/m2
14:24 59.5 °F 46.0 °F 30.24 in Calm   7.0 mph 61% 0.00 in meteobridge W/m2
14:27 59.5 °F 46.6 °F 30.24 in SE 0.9 mph 4.0 mph 62% 0.00 in meteobridge W/m2
14:34 59.5 °F 46.0 °F 30.24 in ESE 4.0 mph 5.0 mph 61% 0.00 in meteobridge W/m2
14:39 59.7 °F 46.8 °F 30.24 in Calm   5.0 mph 62% 0.00 in meteobridge W/m2
14:43 59.7 °F 47.1 °F 30.24 in SE 4.9 mph 6.0 mph 63% 0.00 in meteobridge W/m2
14:49 59.9 °F 47.3 °F 30.23 in SE 2.0 mph 2.0 mph 63% 0.00 in meteobridge W/m2
14:54 60.1 °F 46.9 °F 30.23 in SE 4.0 mph 5.0 mph 62% 0.00 in meteobridge W/m2
14:59 60.3 °F 46.8 °F 30.22 in East 2.0 mph 7.0 mph 61% 0.00 in meteobridge W/m2
15:04 60.3 °F 47.1 °F 30.22 in Calm   5.0 mph 62% 0.00 in meteobridge W/m2
15:09 60.3 °F 47.1 °F 30.22 in SE 6.0 mph 7.0 mph 62% 0.00 in meteobridge W/m2
15:14 60.3 °F 47.1 °F 30.22 in East 0.9 mph 5.0 mph 62% 0.00 in meteobridge W/m2
15:18 60.1 °F 47.5 °F 30.22 in Calm   2.0 mph 63% 0.00 in meteobridge W/m2
15:23 59.9 °F 47.7 °F 30.22 in SE 2.0 mph 2.0 mph 64% 0.00 in meteobridge W/m2
15:29 59.5 °F 47.3 °F 30.23 in Calm   4.0 mph 64% 0.00 in meteobridge W/m2
15:34 59.4 °F 47.7 °F 30.22 in SSE 0.9 mph 4.0 mph 65% 0.00 in meteobridge W/m2
15:39 59.2 °F 47.5 °F 30.22 in Calm   4.0 mph 65% 0.00 in meteobridge W/m2
15:44 59.2 °F 47.8 °F 30.22 in Calm   6.0 mph 66% 0.00 in meteobridge W/m2
15:48 59.0 °F 47.3 °F 30.22 in Calm   6.0 mph 65% 0.00 in meteobridge W/m2
15:54 58.8 °F 47.8 °F 30.21 in East 0.9 mph 1.0 mph 67% 0.00 in meteobridge W/m2
15:58 58.8 °F 47.8 °F 30.21 in Calm   2.0 mph 67% 0.00 in meteobridge W/m2
16:04 58.6 °F 47.7 °F 30.21 in Calm     67% 0.00 in meteobridge W/m2
16:08 58.6 °F 48.2 °F 30.21 in Calm     68% 0.00 in meteobridge W/m2
16:13 58.6 °F 48.6 °F 30.21 in Calm     69% 0.00 in meteobridge W/m2
16:19 58.5 °F 48.7 °F 30.22 in Calm     70% 0.00 in meteobridge W/m2
16:22 58.5 °F 48.7 °F 30.21 in Calm     70% 0.00 in meteobridge W/m2
16:28 58.5 °F 48.4 °F 30.21 in Calm     69% 0.00 in meteobridge W/m2
16:33 58.3 °F 48.6 °F 30.21 in Calm     70% 0.00 in meteobridge W/m2
16:35 58.3 °F 48.6 °F 30.21 in Calm     70% 0.00 in meteobridge W/m2
16:44 57.9 °F 48.6 °F 30.20 in Calm     71% 0.00 in meteobridge W/m2
16:49 57.9 °F 48.6 °F 30.21 in Calm     71% 0.00 in meteobridge W/m2
16:53 57.9 °F 48.2 °F 30.21 in Calm     70% 0.00 in meteobridge W/m2
16:59 57.9 °F 48.6 °F 30.21 in Calm   4.0 mph 71% 0.00 in meteobridge W/m2
17:04 57.9 °F 48.6 °F 30.20 in Calm   1.0 mph 71% 0.00 in meteobridge W/m2
17:08 57.9 °F 48.6 °F 30.20 in Calm     71% 0.00 in meteobridge W/m2
17:14 57.9 °F 48.6 °F 30.20 in Calm   4.0 mph 71% 0.00 in meteobridge W/m2
17:19 57.9 °F 48.6 °F 30.21 in Calm   5.0 mph 71% 0.00 in meteobridge W/m2
17:24 57.9 °F 48.9 °F 30.21 in Calm     72% 0.00 in meteobridge W/m2
17:29 57.7 °F 49.1 °F 30.21 in Calm     73% 0.00 in meteobridge W/m2
17:34 57.6 °F 48.9 °F 30.21 in Calm     73% 0.00 in meteobridge W/m2
17:38 57.4 °F 48.7 °F 30.20 in Calm   2.0 mph 73% 0.00 in meteobridge W/m2
17:43 57.6 °F 48.9 °F 30.20 in SE 4.0 mph 4.0 mph 73% 0.00 in meteobridge W/m2
17:47 57.6 °F 48.9 °F 30.20 in SE 0.9 mph 1.0 mph 73% 0.00 in meteobridge W/m2
17:54 57.7 °F 49.1 °F 30.20 in Calm   2.0 mph 73% 0.00 in meteobridge W/m2
17:56 57.7 °F 49.1 °F 30.20 in ESE 2.0 mph 2.0 mph 73% 0.00 in meteobridge W/m2
18:01 57.7 °F 49.1 °F 30.21 in Calm   8.0 mph 73% 0.00 in meteobridge W/m2
18:09 57.7 °F 49.1 °F 30.21 in Calm   2.0 mph 73% 0.00 in meteobridge W/m2
18:14 57.7 °F 49.1 °F 30.21 in Calm   1.0 mph 73% 0.00 in meteobridge W/m2
18:16 57.7 °F 49.1 °F 30.21 in Calm   6.0 mph 73% 0.00 in meteobridge W/m2
18:24 57.7 °F 49.1 °F 30.21 in Calm   1.0 mph 73% 0.00 in meteobridge W/m2
18:26 57.7 °F 49.1 °F 30.21 in Calm   1.0 mph 73% 0.00 in meteobridge W/m2
18:34 57.6 °F 48.9 °F 30.22 in SE 0.9 mph 5.0 mph 73% 0.00 in meteobridge W/m2
18:39 57.6 °F 48.9 °F 30.22 in Calm   4.0 mph 73% 0.00 in meteobridge W/m2
18:44 57.6 °F 48.9 °F 30.22 in Calm     73% 0.00 in meteobridge W/m2
18:46 57.6 °F 48.9 °F 30.21 in SE 0.9 mph 5.0 mph 73% 0.00 in meteobridge W/m2
18:54 57.4 °F 48.7 °F 30.22 in Calm   1.0 mph 73% 0.00 in meteobridge W/m2
18:59 57.4 °F 49.1 °F 30.22 in Calm   2.0 mph 74% 0.00 in meteobridge W/m2
19:04 57.2 °F 48.9 °F 30.21 in Calm   2.0 mph 74% 0.00 in meteobridge W/m2
19:09 57.2 °F 48.9 °F 30.22 in Calm   2.0 mph 74% 0.00 in meteobridge W/m2
19:14 57.0 °F 48.7 °F 30.22 in Calm   7.0 mph 74% 0.00 in meteobridge W/m2
19:19 57.0 °F 48.7 °F 30.22 in Calm     74% 0.00 in meteobridge W/m2
19:24 57.0 °F 48.7 °F 30.21 in Calm     74% 0.00 in meteobridge W/m2
19:28 57.0 °F 48.7 °F 30.22 in Calm   1.0 mph 74% 0.00 in meteobridge W/m2
19:34 56.8 °F 48.6 °F 30.22 in Calm   4.0 mph 74% 0.00 in meteobridge W/m2
19:39 56.8 °F 48.6 °F 30.21 in Calm     74% 0.00 in meteobridge W/m2
19:43 56.8 °F 48.9 °F 30.20 in Calm     75% 0.00 in meteobridge W/m2
19:49 56.8 °F 48.9 °F 30.20 in Calm     75% 0.00 in meteobridge W/m2
19:54 56.7 °F 48.7 °F 30.21 in Calm   2.0 mph 75% 0.00 in meteobridge W/m2
19:59 56.7 °F 48.7 °F 30.21 in Calm     75% 0.00 in meteobridge W/m2
20:03 56.8 °F 48.9 °F 30.21 in Calm     75% 0.00 in meteobridge W/m2
20:08 56.7 °F 48.7 °F 30.21 in SSE 0.9 mph 2.0 mph 75% 0.00 in meteobridge W/m2
20:14 56.8 °F 48.9 °F 30.20 in Calm   2.0 mph 75% 0.00 in meteobridge W/m2
20:19 56.7 °F 48.7 °F 30.20 in SSE 0.9 mph 1.0 mph 75% 0.00 in meteobridge W/m2
20:24 56.8 °F 48.9 °F 30.20 in Calm   1.0 mph 75% 0.00 in meteobridge W/m2
20:28 56.8 °F 48.9 °F 30.21 in Calm   4.0 mph 75% 0.00 in meteobridge W/m2
20:34 56.8 °F 48.9 °F 30.21 in Calm     75% 0.00 in meteobridge W/m2
20:38 56.8 °F 48.9 °F 30.21 in Calm   2.0 mph 75% 0.00 in meteobridge W/m2
20:42 56.7 °F 48.7 °F 30.21 in Calm   5.0 mph 75% 0.00 in meteobridge W/m2
20:49 56.7 °F 48.7 °F 30.21 in Calm   4.0 mph 75% 0.00 in meteobridge W/m2
20:52 56.7 °F 48.7 °F 30.21 in Calm   2.0 mph 75% 0.00 in meteobridge W/m2
20:59 56.7 °F 49.1 °F 30.22 in Calm   4.0 mph 76% 0.00 in meteobridge W/m2
21:04 56.5 °F 48.9 °F 30.21 in Calm   6.0 mph 76% 0.00 in meteobridge W/m2
21:09 55.8 °F 48.0 °F 30.22 in Calm   1.0 mph 75% 0.01 in meteobridge W/m2
21:14 55.0 °F 46.9 °F 30.21 in Calm     74% 0.02 in meteobridge W/m2
21:19 54.3 °F 45.5 °F 30.21 in Calm     72% 0.02 in meteobridge W/m2
21:24 54.1 °F 44.2 °F 30.21 in Calm     69% 0.02 in meteobridge W/m2
21:27 54.0 °F 43.7 °F 30.21 in Calm     68% 0.02 in meteobridge W/m2
21:33 53.6 °F 42.4 °F 30.21 in Calm     66% 0.02 in meteobridge W/m2
21:37 53.4 °F 42.3 °F 30.21 in Calm     66% 0.02 in meteobridge W/m2
21:44 53.2 °F 41.4 °F 30.22 in Calm     64% 0.02 in meteobridge W/m2
21:49 53.1 °F 40.8 °F 30.22 in Calm     63% 0.02 in meteobridge W/m2
21:54 53.1 °F 40.8 °F 30.22 in Calm   1.0 mph 63% 0.03 in meteobridge W/m2
21:58 53.1 °F 40.8 °F 30.21 in Calm   2.0 mph 63% 0.03 in meteobridge W/m2
22:03 53.1 °F 40.5 °F 30.21 in Calm     62% 0.03 in meteobridge W/m2
22:09 53.1 °F 40.5 °F 30.21 in Calm     62% 0.02 in meteobridge W/m2
22:14 53.1 °F 40.5 °F 30.21 in Calm   1.0 mph 62% 0.01 in meteobridge W/m2
22:19 53.1 °F 40.5 °F 30.21 in Calm   1.0 mph 62% 0.01 in meteobridge W/m2
22:24 53.1 °F 40.5 °F 30.22 in Calm     62% 0.01 in meteobridge W/m2
22:26 53.1 °F 40.5 °F 30.21 in Calm   2.0 mph 62% 0.01 in meteobridge W/m2
22:34 53.1 °F 39.9 °F 30.21 in Calm     61% 0.02 in meteobridge W/m2
22:39 53.1 °F 39.9 °F 30.22 in Calm     61% 0.02 in meteobridge W/m2
22:44 53.1 °F 39.6 °F 30.22 in Calm     60% 0.03 in meteobridge W/m2
22:49 52.9 °F 39.0 °F 30.22 in Calm     59% 0.06 in meteobridge W/m2
22:53 52.9 °F 39.0 °F 30.22 in Calm     59% 0.06 in meteobridge W/m2
22:59 52.9 °F 38.5 °F 30.20 in Calm     58% 0.08 in meteobridge W/m2
23:04 52.9 °F 38.1 °F 30.21 in Calm     57% 0.08 in meteobridge W/m2
23:08 52.7 °F 37.4 °F 30.21 in Calm     56% 0.08 in meteobridge W/m2
23:14 52.7 °F 37.4 °F 30.20 in Calm     56% 0.09 in meteobridge W/m2
23:19 52.7 °F 37.4 °F 30.21 in Calm     56% 0.10 in meteobridge W/m2
23:23 52.7 °F 37.0 °F 30.21 in Calm   1.0 mph 55% 0.11 in meteobridge W/m2
23:29 52.7 °F 37.0 °F 30.22 in WNW 0.9 mph 1.0 mph 55% 0.14 in meteobridge W/m2
23:34 52.9 °F 36.7 °F 30.23 in Calm     54% 0.16 in meteobridge W/m2
23:39 52.9 °F 36.7 °F 30.24 in Calm     54% 0.19 in meteobridge W/m2
23:44 52.7 °F 36.5 °F 30.24 in Calm   1.0 mph 54% 0.23 in meteobridge W/m2
23:49 52.7 °F 36.0 °F 30.24 in Calm     53% 0.25 in meteobridge W/m2
23:53 52.7 °F 36.0 °F 30.22 in Calm     53% 0.27 in meteobridge W/m2
23:58 52.7 °F 36.0 °F 30.22 in Calm   1.0 mph 53% 0.27 in meteobridge W/m2
EllijayWeather
Compliments of Weather Underground - 2.75 mb